Pagrindinis puslapis
METAR-TAF:

METAR-TAF

Oro uostai :

Mitiga International Airport

Tripolis, Libija

platuma: 32-54N, ilguma: 13-17E, Aukštis: 11 m

METAR: trūkstamas

Laikas: 06:34 (04:34 UTC)

Prognozė

Ataskaita buvo paskelbta 5 valandos ir 34 minutes, ne 23:00 UTC
Prognozė galioja nuo 22 metu 00 UTC su 22 metu 24 UTC
Vėjas 2 kt nuo kintamojo kryptimis
Matomumas: 8000 m
Išsisklaidę debesys ne aukštis 2500 ft
Tapsmas
nuo 22 metu 04 UTC su 22 metu 06 UTC
Vėjas 10 kt iš Pietvakarių
Tapsmas
nuo 22 metu 14 UTC su 22 metu 16 UTC
Vėjas 14 kt iš Šiaurės
Tapsmas
nuo 22 metu 21 UTC su 22 metu 23 UTC
Vėjas 2 kt nuo kintamojo kryptimis

TAF: HLLM 212300Z 2200/2224 VRB02KT 8000 SCT025 BECMG 2204/2206 23010KT BECMG 2214/2216 35014KT BECMG 2221/2223 VRB02KT

Orai ataskaitas ir orų prognozės (METAR, TAF).

turimą stotys yra geltonos ir raudonos taškus žemėlapyje.

Perkelti pele per norėdami pamatyti stoties vardą.

Tada spustelėkite, norėdami matyti oro stebėjimo ir prognozės.

Norėdami pakeisti žemėlapį: spustelėkite ant žalios mygtukų su juodo kryžiaus žemyn,; žalią mygtuką su brūkšneliu, jei norite nutolinti; arba žalių rodyklių gretimoms žemėlapius.


METAR-TAF: